createdAt,value
2019-04-25T00:02:51.878Z,16.79
2019-04-25T00:07:57.338Z,16.65
2019-04-25T00:13:03.683Z,16.92
2019-04-25T00:18:09.525Z,16.87
2019-04-25T00:23:17.283Z,16.65
2019-04-25T00:28:22.976Z,16.53
2019-04-25T00:33:31.654Z,16.53
2019-04-25T00:38:39.797Z,16.45
2019-04-25T00:43:47.476Z,16.20
2019-04-25T00:48:55.345Z,16.10
2019-04-25T00:54:03.003Z,16.21
2019-04-25T00:59:18.523Z,15.90
2019-04-25T01:04:25.967Z,15.93
2019-04-25T01:09:33.770Z,16.16
2019-04-25T01:14:41.861Z,15.81
2019-04-25T01:19:47.425Z,15.59
2019-04-25T01:24:54.123Z,15.47
2019-04-25T01:30:03.999Z,15.39
2019-04-25T01:35:26.533Z,15.37
2019-04-25T01:40:55.474Z,15.39
2019-04-25T01:46:03.406Z,15.35
2019-04-25T01:51:09.631Z,15.56
2019-04-25T01:56:15.309Z,15.49
2019-04-25T02:01:24.155Z,15.07
2019-04-25T02:06:33.451Z,14.96
2019-04-25T02:11:55.629Z,15.21
2019-04-25T02:17:04.518Z,15.25
2019-04-25T02:22:14.564Z,15.19
2019-04-25T02:27:20.410Z,15.11
2019-04-25T02:32:25.863Z,14.99
2019-04-25T02:37:31.611Z,14.59
2019-04-25T02:42:38.046Z,14.29
2019-04-25T02:48:05.651Z,14.06
2019-04-25T02:53:29.542Z,14.11
2019-04-25T02:58:38.102Z,14.26
2019-04-25T03:03:45.084Z,14.28
2019-04-25T03:08:54.049Z,13.72
2019-04-25T03:14:00.520Z,13.24
2019-04-25T03:19:19.330Z,13.10
2019-04-25T03:24:25.659Z,12.99
2019-04-25T03:29:31.259Z,12.72
2019-04-25T03:34:39.911Z,12.57
2019-04-25T03:39:46.269Z,12.57
2019-04-25T03:44:54.141Z,12.42
2019-04-25T03:49:59.960Z,12.27
2019-04-25T03:55:07.712Z,12.44
2019-04-25T04:00:14.734Z,12.48
2019-04-25T04:05:20.702Z,12.22
2019-04-25T04:10:26.514Z,12.40
2019-04-25T04:15:33.536Z,12.34
2019-04-25T04:20:56.940Z,12.21
2019-04-25T04:26:03.311Z,11.90
2019-04-25T04:31:10.276Z,12.40
2019-04-25T04:36:18.949Z,14.44
2019-04-25T04:41:25.314Z,15.12
2019-04-25T04:46:30.762Z,16.07
2019-04-25T04:51:36.396Z,16.07
2019-04-25T04:56:43.832Z,17.96
2019-04-25T05:02:06.873Z,19.17
2019-04-25T05:07:30.486Z,19.64
2019-04-25T05:12:36.457Z,19.41
2019-04-25T05:17:42.021Z,20.36
2019-04-25T05:22:49.844Z,21.32
2019-04-25T05:28:02.870Z,20.91
2019-04-25T05:33:06.096Z,21.67
2019-04-25T05:38:14.240Z,22.51
2019-04-25T05:43:19.364Z,23.16
2019-04-25T05:48:26.307Z,24.08
2019-04-25T05:53:33.423Z,26.18
2019-04-25T05:58:39.378Z,27.22
2019-04-25T06:03:45.228Z,27.60
2019-04-25T06:08:57.581Z,27.94
2019-04-25T06:14:13.535Z,28.07
2019-04-25T06:19:47.980Z,28.58
2019-04-25T06:25:07.907Z,28.37
2019-04-25T06:30:22.620Z,27.79
2019-04-25T06:35:32.122Z,28.33
2019-04-25T06:40:40.376Z,29.06
2019-04-25T06:46:03.860Z,29.23
2019-04-25T06:51:13.536Z,29.41
2019-04-25T06:56:25.010Z,30.23
2019-04-25T07:01:55.983Z,29.26
2019-04-25T07:07:10.500Z,29.20
2019-04-25T07:12:10.891Z,29.28
2019-04-25T07:17:19.550Z,28.98
2019-04-25T07:28:37.683Z,27.80
2019-04-25T07:34:27.710Z,25.53
2019-04-25T07:45:30.813Z,25.98
2019-04-25T07:50:40.704Z,25.55
2019-04-25T07:55:56.535Z,25.81
2019-04-25T09:05:14.511Z,26.40
2019-04-25T09:21:14.447Z,23.21
2019-04-25T09:59:27.220Z,24.88
2019-04-25T10:04:28.135Z,24.63
2019-04-25T10:09:35.960Z,24.39
2019-04-25T10:15:08.661Z,24.74
2019-04-25T10:20:16.682Z,25.35
2019-04-25T10:25:23.855Z,24.24
2019-04-25T10:30:42.923Z,24.03
2019-04-25T10:35:58.332Z,24.81
2019-04-25T10:40:59.148Z,24.05
2019-04-25T10:46:05.395Z,25.47
2019-04-25T10:51:11.106Z,24.63
2019-04-25T10:56:17.771Z,23.63
2019-04-25T11:01:44.700Z,24.32
2019-04-25T11:06:51.710Z,24.20
2019-04-25T11:12:02.134Z,24.45
2019-04-25T11:17:08.512Z,24.34
2019-04-25T11:22:16.002Z,23.67
2019-04-25T11:27:24.017Z,24.00
2019-04-25T11:32:40.214Z,25.06
2019-04-25T11:37:46.211Z,24.36
2019-04-25T11:42:53.024Z,25.10
2019-04-25T11:48:01.982Z,25.49
2019-04-25T11:53:15.300Z,25.38
2019-04-25T11:58:45.689Z,25.40
2019-04-25T12:03:56.688Z,25.45
2019-04-25T12:09:08.132Z,25.64
2019-04-25T12:14:17.715Z,25.75
2019-04-25T12:19:34.993Z,25.76
2019-04-25T12:24:33.319Z,25.69
2019-04-25T12:29:40.741Z,25.45
2019-04-25T12:34:47.406Z,25.28
2019-04-25T12:39:55.950Z,24.86
2019-04-25T12:45:24.152Z,25.57
2019-04-25T12:50:39.564Z,25.47
2019-04-25T12:55:47.495Z,25.38
2019-04-25T13:00:57.200Z,25.72
2019-04-25T13:06:03.172Z,26.04
2019-04-25T13:11:11.906Z,25.79
2019-04-25T13:16:18.936Z,25.76
2019-04-25T13:21:24.213Z,26.19
2019-04-25T13:26:35.731Z,26.28
2019-04-25T13:31:58.793Z,25.23
2019-04-25T13:37:09.686Z,25.67
2019-04-25T13:42:15.223Z,25.64
2019-04-25T13:47:21.865Z,25.83
2019-04-25T13:52:28.903Z,25.82
2019-04-25T13:57:39.171Z,25.78
2019-04-25T14:02:46.415Z,25.98
2019-04-25T14:07:52.674Z,25.45
2019-04-25T14:13:00.761Z,25.76
2019-04-25T14:18:26.532Z,25.85
2019-04-25T14:23:34.550Z,25.69
2019-04-25T14:28:44.292Z,25.70
2019-04-25T14:33:51.774Z,25.66
2019-04-25T14:38:58.977Z,25.81
2019-04-25T14:44:04.369Z,25.68
2019-04-25T14:49:11.444Z,25.26
2019-04-25T14:54:32.683Z,25.33
2019-04-25T14:59:38.328Z,25.65
2019-04-25T15:04:45.881Z,25.35
2019-04-25T15:09:51.244Z,25.14
2019-04-25T15:14:59.010Z,25.46
2019-04-25T15:20:05.187Z,25.05
2019-04-25T15:25:10.806Z,25.02
2019-04-25T15:30:24.991Z,25.43
2019-04-25T15:35:42.541Z,25.08
2019-04-25T15:41:02.064Z,25.07
2019-04-25T15:46:15.818Z,24.88
2019-04-25T15:51:26.941Z,24.86
2019-04-25T15:56:32.601Z,25.17
2019-04-25T16:01:38.602Z,24.91
2019-04-25T16:06:45.317Z,24.62
2019-04-25T16:11:51.616Z,24.62
2019-04-25T16:16:59.740Z,24.50
2019-04-25T16:22:05.498Z,24.56
2019-04-25T16:27:11.049Z,24.24
2019-04-25T16:32:21.161Z,24.17
2019-04-25T16:37:26.767Z,23.90
2019-04-25T16:42:53.749Z,23.50
2019-04-25T16:48:02.281Z,23.49
2019-04-25T16:53:08.293Z,23.54
2019-04-25T16:58:13.707Z,23.38
2019-04-25T17:03:22.071Z,23.38
2019-04-25T17:08:28.714Z,23.23
2019-04-25T17:13:40.647Z,23.12
2019-04-25T17:18:59.335Z,23.14
2019-04-25T17:24:05.216Z,23.16
2019-04-25T17:29:15.194Z,23.06
2019-04-25T17:34:31.786Z,22.87
2019-04-25T17:39:41.935Z,22.73
2019-04-25T17:44:47.488Z,22.80
2019-04-25T17:49:52.858Z,22.70
2019-04-25T17:54:58.835Z,22.60
2019-04-25T18:00:04.669Z,22.40
2019-04-25T18:05:13.185Z,22.43
2019-04-25T18:10:19.004Z,22.29
2019-04-25T18:15:32.973Z,22.07
2019-04-25T18:20:41.034Z,21.98
2019-04-25T18:26:09.750Z,21.73
2019-04-25T18:31:15.471Z,21.69
2019-04-25T18:36:55.091Z,21.36
2019-04-25T18:42:22.469Z,21.23
2019-04-25T18:47:27.849Z,21.20
2019-04-25T18:53:12.326Z,21.17
2019-04-25T18:58:39.874Z,21.02
2019-04-25T19:04:16.418Z,20.78
2019-04-25T19:09:24.277Z,20.61
2019-04-25T19:14:29.952Z,20.48
2019-04-25T19:19:35.394Z,20.33
2019-04-25T19:24:45.016Z,20.08
2019-04-25T19:29:50.034Z,20.14
2019-04-25T19:34:56.592Z,20.02
2019-04-25T19:40:30.407Z,19.91
2019-04-25T19:45:36.682Z,19.88
2019-04-25T19:50:44.543Z,19.68
2019-04-25T19:55:52.128Z,19.52
2019-04-25T20:00:58.199Z,19.48
2019-04-25T20:06:18.228Z,19.32
2019-04-25T20:11:38.439Z,19.28
2019-04-25T20:16:46.103Z,19.16
2019-04-25T20:21:52.107Z,19.00
2019-04-25T20:26:57.800Z,18.82
2019-04-25T20:32:03.768Z,18.82
2019-04-25T20:37:09.152Z,18.82
2019-04-25T20:42:17.484Z,18.65
2019-04-25T20:47:22.796Z,18.61
2019-04-25T20:52:28.247Z,18.48
2019-04-25T20:57:33.664Z,18.45
2019-04-25T21:02:39.663Z,18.38
2019-04-25T21:07:44.992Z,18.32
2019-04-25T21:12:51.642Z,18.26
2019-04-25T21:18:14.939Z,18.11
2019-04-25T21:23:21.251Z,18.12
2019-04-25T21:28:28.752Z,18.22
2019-04-25T21:33:35.245Z,18.08
2019-04-25T21:38:40.773Z,17.85
2019-04-25T21:43:50.411Z,17.76
2019-04-25T21:48:58.926Z,17.76
2019-04-25T21:54:07.295Z,17.79
2019-04-25T21:59:14.088Z,17.77
2019-04-25T22:04:20.445Z,17.66
2019-04-25T22:09:26.754Z,17.61
2019-04-25T22:14:33.036Z,17.56
2019-04-25T22:19:48.775Z,17.52
2019-04-25T22:24:56.198Z,17.37
2019-04-25T22:30:05.447Z,17.39
2019-04-25T22:35:22.376Z,17.28
2019-04-25T22:40:27.677Z,16.99
2019-04-25T22:45:34.087Z,16.93
2019-04-25T22:50:40.687Z,16.81
2019-04-25T22:55:46.084Z,16.70
2019-04-25T23:00:51.533Z,16.66
2019-04-25T23:05:58.190Z,16.72
2019-04-25T23:11:04.415Z,16.70
2019-04-25T23:16:09.709Z,16.72
2019-04-25T23:21:15.221Z,16.68
2019-04-25T23:26:43.976Z,16.79
2019-04-25T23:31:51.507Z,16.64
2019-04-25T23:36:57.177Z,16.51
2019-04-25T23:42:05.929Z,16.53
2019-04-25T23:47:12.128Z,16.51
2019-04-25T23:52:19.422Z,16.48
2019-04-25T23:57:25.077Z,16.53
